logo
Search for airport 
image banner adimage banner adimage banner ad
image banner ad

SWBH - Fazenda São José Do Rancho Grande

Located in Aquidauana, Brazil

ICAO - SWBH, IATA -

Data provided by Airmate  

General information

Coordinates: S20°9'22" W55°32'44"
Elevation is 557 feet MSL.
Magnetic variation is -21° East
View others Airports in Tocatins

Operational data

Special qualification required
Current time UTC:
Current local time:
Weather at : - ( 0 km )
METAR: CYYW 140357Z AUTO 00000KT 9SM -RA SCT046 OVC055 02/M02 A2971 RMK SLP078
View NOTAMs / SUP AIP / TFR affecting this airport [VIEW]
Communications frequencies: [VIEW]

Runways:

RWY identifierQFULength (ft)Width (ft)SurfaceLDA (ft)
03262566GRASS
21262566GRASS

Airport contact information

Address: Aquidauana Brazil

Satellite view of SWBH